Time;durP1;ratioP1;P1;durP2;ratioP2;P2;SDS_P1;SDS_P2;PMS_P1;PMS_P2;Temp;Humidity;BMP_temperature;BMP_pressure;BME280_temperature;BME280_humidity;BME280_pressure;Samples;Min_cycle;Max_cycle;Signal;HPM_P1;HPM_P2
2022/02/23 00:00:23;;;;;;;5.72;2.83;;;-12.00;94.20;;;;;;4936527;29;20167;-73
2022/02/23 00:02:48;;;;;;;6.25;2.90;;;-12.00;94.60;;;;;;4936459;29;20031;-74
2022/02/23 00:05:14;;;;;;;3.10;2.38;;;-12.00;94.50;;;;;;4936372;29;20028;-74
2022/02/23 00:07:40;;;;;;;7.70;2.30;;;-12.00;94.80;;;;;;4936742;29;20379;-73
2022/02/23 00:10:06;;;;;;;6.47;2.70;;;-12.00;94.70;;;;;;4936566;29;20388;-73
2022/02/23 00:12:32;;;;;;;4.95;2.55;;;-12.00;94.20;;;;;;4936676;29;20050;-73
2022/02/23 00:14:59;;;;;;;6.18;2.42;;;-12.00;94.20;;;;;;4936393;29;20511;-74
2022/02/23 00:17:25;;;;;;;4.03;2.42;;;-12.00;94.60;;;;;;4936410;29;20108;-73
2022/02/23 00:19:55;;;;;;;4.75;2.50;;;-12.00;94.00;;;;;;4936216;29;20039;-73
2022/02/23 00:22:21;;;;;;;11.50;2.50;;;-12.00;94.10;;;;;;4936009;29;20344;-74
2022/02/23 00:24:47;;;;;;;6.18;2.50;;;-12.00;94.40;;;;;;4936211;29;20563;-73
2022/02/23 00:27:13;;;;;;;5.13;2.42;;;-12.00;94.50;;;;;;4935943;29;20111;-74
2022/02/23 00:29:39;;;;;;;2.47;2.22;;;-12.00;94.10;;;;;;4936411;29;20082;-73
2022/02/23 00:32:05;;;;;;;6.72;2.88;;;-12.00;94.10;;;;;;4936090;29;20031;-73
2022/02/23 00:34:31;;;;;;;4.70;2.33;;;-12.00;93.90;;;;;;4935886;29;20503;-71
2022/02/23 00:36:57;;;;;;;6.28;2.28;;;-12.00;94.10;;;;;;4935900;29;20074;-72
2022/02/23 00:39:23;;;;;;;3.83;2.70;;;-12.00;93.90;;;;;;4935937;29;20047;-72
2022/02/23 00:41:50;;;;;;;5.50;2.50;;;-12.00;93.90;;;;;;4935786;29;20031;-72
2022/02/23 00:44:16;;;;;;;5.63;2.60;;;-12.00;94.10;;;;;;4935784;29;20028;-72
2022/02/23 00:46:43;;;;;;;6.95;2.55;;;-12.00;94.30;;;;;;4935703;29;20039;-72
2022/02/23 00:49:09;;;;;;;6.82;2.92;;;-12.00;94.90;;;;;;4936026;29;20027;-72
2022/02/23 00:51:35;;;;;;;5.80;2.70;;;-12.00;95.70;;;;;;4935650;29;20118;-72
2022/02/23 00:54:01;;;;;;;8.13;2.60;;;-12.00;96.00;;;;;;4935833;29;20111;-72
2022/02/23 00:56:27;;;;;;;2.72;2.10;;;-12.00;95.90;;;;;;4935509;29;20110;-73
2022/02/23 00:58:52;;;;;;;7.13;2.58;;;-12.00;96.10;;;;;;4935909;29;20036;-72
2022/02/23 01:01:18;;;;;;;4.47;2.58;;;-12.00;96.40;;;;;;4935731;29;20023;-72
2022/02/23 01:03:44;;;;;;;5.93;2.75;;;-12.00;96.70;;;;;;4935416;29;20055;-73
2022/02/23 01:06:10;;;;;;;3.95;2.20;;;-12.00;97.10;;;;;;4935233;29;20019;-73
2022/02/23 01:08:36;;;;;;;3.70;2.30;;;-12.00;97.20;;;;;;4935564;29;20028;-73
2022/02/23 01:11:03;;;;;;;4.05;2.63;;;-12.00;97.30;;;;;;4935361;29;20028;-73
2022/02/23 01:13:28;;;;;;;3.03;2.40;;;-12.00;97.50;;;;;;4935692;29;20078;-73
2022/02/23 01:15:54;;;;;;;3.92;2.55;;;-12.00;97.50;;;;;;4935304;29;20023;-73
2022/02/23 01:18:20;;;;;;;4.65;2.80;;;-12.00;97.50;;;;;;4934942;29;20031;-73
2022/02/23 01:20:46;;;;;;;5.82;2.75;;;-12.00;97.80;;;;;;4934830;29;20035;-73
2022/02/23 01:23:11;;;;;;;3.92;2.67;;;-12.00;98.00;;;;;;4934966;29;20138;-73
2022/02/23 01:25:37;;;;;;;2.92;2.40;;;-12.00;98.30;;;;;;4935148;29;20392;-72
2022/02/23 01:28:05;;;;;;;3.95;2.28;;;-12.00;98.10;;;;;;4934982;29;20042;-72
2022/02/23 01:30:32;;;;;;;3.92;2.50;;;-12.00;98.20;;;;;;4935179;29;20047;-72
2022/02/23 01:32:58;;;;;;;5.82;2.47;;;-12.10;98.10;;;;;;4935120;29;20502;-73
2022/02/23 01:35:25;;;;;;;3.92;2.55;;;-12.10;98.50;;;;;;4934839;29;20062;-74
2022/02/23 01:37:52;;;;;;;5.68;2.67;;;-12.00;98.60;;;;;;4934727;29;20047;-74
2022/02/23 01:40:19;;;;;;;4.20;2.60;;;-12.00;98.80;;;;;;4934792;29;20483;-74
2022/02/23 01:42:44;;;;;;;5.47;2.63;;;-11.90;98.80;;;;;;4934957;29;20067;-74
2022/02/23 01:45:10;;;;;;;7.00;2.60;;;-12.00;98.50;;;;;;4934766;29;20101;-74
2022/02/23 01:47:37;;;;;;;3.15;2.60;;;-12.00;98.50;;;;;;4934835;29;20472;-74
2022/02/23 01:50:04;;;;;;;6.68;2.78;;;-12.00;98.70;;;;;;4934773;29;20456;-74
2022/02/23 01:52:30;;;;;;;3.53;2.50;;;-12.00;98.70;;;;;;4934604;29;20475;-71
2022/02/23 01:54:56;;;;;;;3.88;2.25;;;-12.00;98.20;;;;;;4934713;29;20031;-71
2022/02/23 01:57:22;;;;;;;4.88;2.92;;;-12.00;97.80;;;;;;4934691;29;20107;-73
2022/02/23 01:59:48;;;;;;;3.63;2.58;;;-11.90;98.20;;;;;;4934694;29;20059;-73
2022/02/23 02:02:14;;;;;;;4.57;2.20;;;-12.00;98.20;;;;;;4934680;29;20031;-73
2022/02/23 02:04:40;;;;;;;6.18;2.60;;;-12.00;98.20;;;;;;4934780;29;20030;-73
2022/02/23 02:07:06;;;;;;;3.40;2.42;;;-12.00;98.20;;;;;;4934703;29;20464;-73
2022/02/23 02:09:32;;;;;;;3.38;2.72;;;-12.00;98.40;;;;;;4934792;29;20043;-73
2022/02/23 02:11:58;;;;;;;4.85;2.30;;;-12.00;98.40;;;;;;4934652;29;20028;-73
2022/02/23 02:14:24;;;;;;;2.60;2.28;;;-12.00;98.20;;;;;;4934778;29;20032;-73
2022/02/23 02:16:50;;;;;;;3.88;2.58;;;-12.00;97.30;;;;;;4934662;29;20376;-73
2022/02/23 02:19:16;;;;;;;4.88;2.85;;;-12.00;96.80;;;;;;4934500;29;20051;-73
2022/02/23 02:21:53;;;;;;;4.25;2.88;;;-12.00;96.50;;;;;;4934667;29;20024;-73
2022/02/23 02:55:48;;;;;;;4.32;2.45;;;-12.10;95.10;;;;;;4937135;29;20143;-71
2022/02/23 02:58:14;;;;;;;4.45;2.70;;;-12.10;94.70;;;;;;4937714;29;20028;-71
2022/02/23 03:00:40;;;;;;;6.88;2.58;;;-12.20;94.50;;;;;;4937995;29;20032;-71
2022/02/23 03:03:06;;;;;;;3.65;2.53;;;-12.20;94.90;;;;;;4937685;29;20020;-71
2022/02/23 03:39:11;;;;;;;8.68;3.08;;;-12.10;98.70;;;;;;5064523;23;20110;-69
2022/02/23 03:41:37;;;;;;;6.82;2.70;;;-12.10;99.20;;;;;;4955956;29;20019;-70
2022/02/23 03:44:03;;;;;;;8.95;2.70;;;-12.00;99.90;;;;;;4955866;28;20518;-70
2022/02/23 03:46:28;;;;;;;5.57;2.58;;;-12.00;99.90;;;;;;4956194;29;20032;-70
2022/02/23 03:48:54;;;;;;;3.72;2.35;;;-12.00;99.90;;;;;;4955996;29;20027;-70
2022/02/23 03:51:20;;;;;;;6.10;2.85;;;-12.00;99.90;;;;;;4956306;28;20046;-70
2022/02/23 03:53:45;;;;;;;3.00;2.50;;;-11.90;99.90;;;;;;4955793;29;20024;-70
2022/02/23 03:56:38;;;;;;;4.63;2.53;;;-11.90;99.90;;;;;;4956006;28;20035;-72
2022/02/23 03:58:57;;;;;;;4.93;2.80;;;-11.90;99.90;;;;;;4955501;29;20533;-70
2022/02/23 04:01:22;;;;;;;13.20;2.83;;;-11.90;99.90;;;;;;4956112;29;20024;-70
2022/02/23 04:03:48;;;;;;;5.25;2.70;;;-11.90;99.90;;;;;;4955586;29;20106;-70
2022/02/23 04:06:13;;;;;;;5.43;2.95;;;-11.90;99.90;;;;;;4955792;29;20026;-70
2022/02/23 04:08:39;;;;;;;9.60;3.08;;;-11.90;99.90;;;;;;4955517;29;20483;-70
2022/02/23 04:11:05;;;;;;;5.75;3.10;;;-11.90;99.90;;;;;;4954582;29;20027;-71
2022/02/23 04:13:30;;;;;;;5.65;2.53;;;-11.90;99.90;;;;;;4955900;28;20110;-71
2022/02/23 04:15:56;;;;;;;7.35;3.97;;;-11.80;99.90;;;;;;4955466;29;20031;-71
2022/02/23 04:18:22;;;;;;;7.80;5.55;;;-11.80;99.90;;;;;;4955428;29;20027;-72
2022/02/23 04:20:47;;;;;;;6.95;3.53;;;-11.80;99.90;;;;;;4955637;29;20035;-71
2022/02/23 04:23:13;;;;;;;4.53;3.03;;;-11.80;99.90;;;;;;4955869;29;20065;-71
2022/02/23 04:25:40;;;;;;;5.28;3.30;;;-11.80;99.90;;;;;;4955584;29;20035;-71
2022/02/23 04:28:05;;;;;;;8.07;3.88;;;-11.70;99.90;;;;;;4955347;28;20379;-72
2022/02/23 04:30:31;;;;;;;3.92;2.58;;;-11.80;99.90;;;;;;4955306;29;20030;-72
2022/02/23 04:32:57;;;;;;;5.22;2.70;;;-12.00;99.90;;;;;;4955481;28;20027;-71
2022/02/23 04:35:23;;;;;;;4.97;2.60;;;-12.20;99.90;;;;;;4955530;28;20038;-71
2022/02/23 04:37:48;;;;;;;7.57;2.78;;;-12.20;99.90;;;;;;4954734;29;20117;-73
2022/02/23 04:40:14;;;;;;;7.60;3.17;;;-12.10;99.90;;;;;;4955301;29;20143;-73
2022/02/23 04:42:40;;;;;;;4.10;3.00;;;-12.00;99.90;;;;;;4955220;28;20888;-72
2022/02/23 04:45:06;;;;;;;2.63;2.42;;;-11.90;99.90;;;;;;4955000;28;20027;-73
2022/02/23 04:47:32;;;;;;;4.70;2.85;;;-11.80;99.90;;;;;;4954893;29;20065;-73
2022/02/23 04:49:58;;;;;;;4.63;2.70;;;-11.80;99.90;;;;;;4955047;28;20082;-73
2022/02/23 04:52:24;;;;;;;7.38;3.17;;;-11.80;99.90;;;;;;4954943;28;20051;-72
2022/02/23 04:54:52;;;;;;;3.67;2.53;;;-11.80;99.90;;;;;;4954553;28;20023;-72
2022/02/23 04:57:17;;;;;;;4.35;2.30;;;-11.70;99.90;;;;;;4954203;28;20609;-72
2022/02/23 04:59:43;;;;;;;3.40;2.65;;;-11.70;99.90;;;;;;4954766;29;20130;-72
2022/02/23 05:02:10;;;;;;;3.80;2.70;;;-11.70;99.70;;;;;;4955017;29;20023;-72
2022/02/23 05:04:36;;;;;;;3.15;2.67;;;-11.80;99.90;;;;;;4954834;28;20035;-72
2022/02/23 05:07:02;;;;;;;6.95;2.88;;;-11.80;99.50;;;;;;4954499;28;20035;-71
2022/02/23 05:09:27;;;;;;;6.45;3.20;;;-11.80;99.50;;;;;;4954691;28;20106;-72
2022/02/23 05:11:53;;;;;;;9.32;3.17;;;-11.90;99.90;;;;;;4954401;29;20108;-71
2022/02/23 05:14:20;;;;;;;4.57;2.97;;;-12.10;99.90;;;;;;4954516;29;20463;-72
2022/02/23 05:16:46;;;;;;;4.10;2.95;;;-12.10;99.90;;;;;;4954512;28;20019;-72
2022/02/23 05:19:12;;;;;;;6.38;3.55;;;-12.20;99.90;;;;;;4954248;28;20446;-72
2022/02/23 05:21:37;;;;;;;6.45;3.45;;;-12.20;99.90;;;;;;4954456;29;20023;-72
2022/02/23 05:24:04;;;;;;;5.93;3.85;;;-12.10;99.90;;;;;;4952711;29;20167;-73
2022/02/23 05:26:29;;;;;;;7.40;3.78;;;-12.00;99.90;;;;;;4954127;28;20598;-72
2022/02/23 05:28:55;;;;;;;5.97;3.35;;;-11.80;99.90;;;;;;4953991;29;20063;-72
2022/02/23 05:31:21;;;;;;;5.10;2.95;;;-11.80;99.90;;;;;;4954256;29;20042;-69
2022/02/23 05:33:47;;;;;;;3.97;3.20;;;-11.70;99.90;;;;;;4954227;28;20054;-70
2022/02/23 05:36:12;;;;;;;6.22;3.10;;;-11.70;99.90;;;;;;4954117;28;20086;-73
2022/02/23 05:38:38;;;;;;;6.47;2.97;;;-11.70;99.90;;;;;;4953626;29;20062;-71
2022/02/23 05:41:05;;;;;;;7.43;2.63;;;-11.40;99.90;;;;;;4953639;28;20071;-77
2022/02/23 05:43:31;;;;;;;6.70;3.33;;;-10.50;99.90;;;;;;4953882;28;20058;-73
2022/02/23 05:45:57;;;;;;;4.70;3.10;;;-10.80;99.90;;;;;;4943571;28;20465;-74
2022/02/23 05:48:23;;;;;;;7.13;3.38;;;-11.30;99.90;;;;;;4926233;29;20047;-73
2022/02/23 05:50:49;;;;;;;5.28;3.17;;;-11.40;99.90;;;;;;4923627;29;20075;-76
2022/02/23 05:53:15;;;;;;;7.80;2.90;;;-11.50;99.90;;;;;;4923022;29;20103;-77
2022/02/23 05:55:40;;;;;;;9.05;3.50;;;-11.50;99.90;;;;;;4926287;29;20048;-76
2022/02/23 05:58:06;;;;;;;6.32;2.88;;;-11.50;99.90;;;;;;4924123;29;20413;-71
2022/02/23 06:00:32;;;;;;;8.32;3.40;;;-11.40;99.90;;;;;;4920537;29;20036;-72
2022/02/23 06:02:58;;;;;;;9.52;3.35;;;-11.50;99.90;;;;;;4926746;29;20099;-72
2022/02/23 06:05:23;;;;;;;7.28;3.45;;;-11.40;99.90;;;;;;4921136;29;20036;-72
2022/02/23 06:07:49;;;;;;;7.35;3.65;;;-11.50;99.90;;;;;;4917757;29;20032;-71
2022/02/23 06:10:15;;;;;;;8.23;3.55;;;-11.60;99.90;;;;;;4919916;29;20032;-71
2022/02/23 06:12:40;;;;;;;6.85;3.17;;;-11.60;99.90;;;;;;4927647;29;20036;-70
2022/02/23 06:15:07;;;;;;;8.30;3.53;;;-11.60;99.90;;;;;;4930516;29;20369;-71
2022/02/23 06:17:33;;;;;;;11.82;3.70;;;-11.60;99.90;;;;;;4927677;29;20031;-71
2022/02/23 06:19:58;;;;;;;7.53;3.25;;;-11.70;99.90;;;;;;4925190;29;20502;-70
2022/02/23 06:22:24;;;;;;;7.32;3.38;;;-11.80;99.90;;;;;;4919699;29;20028;-71
2022/02/23 06:24:50;;;;;;;6.25;3.50;;;-11.90;99.90;;;;;;4919471;29;20032;-69
2022/02/23 06:27:17;;;;;;;6.53;3.42;;;-11.90;99.90;;;;;;4919145;29;20046;-69
2022/02/23 06:29:43;;;;;;;6.22;3.60;;;-11.40;99.90;;;;;;4919029;29;20024;-69
2022/02/23 06:32:09;;;;;;;4.47;3.13;;;-11.40;99.90;;;;;;4917876;29;20035;-70
2022/02/23 06:34:36;;;;;;;9.88;3.40;;;-11.50;99.90;;;;;;4919388;29;20440;-70
2022/02/23 06:37:03;;;;;;;13.50;3.65;;;-11.60;99.90;;;;;;4919101;29;20400;-69
2022/02/23 06:39:34;;;;;;;11.20;3.78;;;-11.70;99.90;;;;;;4928310;29;20110;-70
2022/02/23 06:42:01;;;;;;;6.65;3.42;;;-11.70;99.90;;;;;;4935502;29;20066;-69
2022/02/23 06:44:26;;;;;;;8.85;3.97;;;-11.70;99.90;;;;;;4918989;29;20059;-70
2022/02/23 06:46:52;;;;;;;8.63;3.97;;;-11.60;99.90;;;;;;4918731;29;20058;-69
2022/02/23 06:49:18;;;;;;;4.60;3.03;;;-11.60;99.90;;;;;;4918814;29;20480;-68
2022/02/23 06:51:47;;;;;;;9.75;3.67;;;-11.40;99.90;;;;;;4919712;29;20032;-71
2022/02/23 06:54:13;;;;;;;9.30;3.70;;;-11.00;99.90;;;;;;4937854;29;20076;-69
2022/02/23 06:56:39;;;;;;;12.90;4.30;;;-11.10;99.90;;;;;;4938015;29;20036;-69
2022/02/23 06:59:05;;;;;;;8.98;4.28;;;-11.30;99.90;;;;;;4937687;29;20055;-69
2022/02/23 07:01:31;;;;;;;13.30;4.78;;;-11.40;99.90;;;;;;4937628;29;20231;-69
2022/02/23 07:03:56;;;;;;;6.57;3.55;;;-11.50;99.90;;;;;;4933476;29;20038;-69
2022/02/23 07:06:22;;;;;;;10.63;4.05;;;-11.40;99.90;;;;;;4937528;29;20024;-69
2022/02/23 07:08:50;;;;;;;6.03;2.80;;;-11.30;99.90;;;;;;4937312;29;20467;-69
2022/02/23 07:11:16;;;;;;;11.25;4.57;;;-11.40;99.90;;;;;;4936338;29;20038;-68
2022/02/23 07:13:44;;;;;;;8.13;3.65;;;-11.40;99.90;;;;;;4937376;29;20020;-70
2022/02/23 07:16:12;;;;;;;4.75;3.03;;;-11.30;99.90;;;;;;4937419;29;20023;-69
2022/02/23 07:18:38;;;;;;;8.65;3.63;;;-11.30;99.90;;;;;;4936489;29;20083;-69
2022/02/23 07:21:04;;;;;;;7.95;4.10;;;-11.30;99.90;;;;;;4937329;29;20039;-69
2022/02/23 07:23:30;;;;;;;12.35;4.43;;;-11.30;99.90;;;;;;4937117;29;20023;-69
2022/02/23 07:25:56;;;;;;;11.10;5.15;;;-11.30;99.90;;;;;;4937286;29;20031;-70
2022/02/23 07:28:24;;;;;;;9.90;4.72;;;-11.20;99.90;;;;;;4937068;29;20038;-69
2022/02/23 07:30:51;;;;;;;12.60;5.22;;;-11.00;99.90;;;;;;4937295;29;20065;-69
2022/02/23 07:33:18;;;;;;;14.77;5.05;;;-10.90;99.90;;;;;;4937000;29;20123;-70
2022/02/23 07:35:45;;;;;;;9.23;5.07;;;-10.90;99.90;;;;;;4931007;29;20551;-72
2022/02/23 07:38:11;;;;;;;8.98;4.70;;;-10.90;99.90;;;;;;4936496;29;20090;-73
2022/02/23 07:40:37;;;;;;;14.18;6.45;;;-10.90;99.90;;;;;;4936914;29;20687;-70
2022/02/23 07:43:06;;;;;;;11.93;5.85;;;-10.80;99.90;;;;;;4935382;29;20047;-77
2022/02/23 07:45:35;;;;;;;12.88;4.63;;;-10.70;99.90;;;;;;4933189;29;20034;-77
2022/02/23 07:48:02;;;;;;;10.32;5.57;;;-10.50;99.90;;;;;;4936060;29;20502;-68
2022/02/23 07:50:28;;;;;;;14.80;5.90;;;-10.30;99.90;;;;;;4936189;29;20543;-71
2022/02/23 07:52:54;;;;;;;8.82;4.75;;;-10.30;99.90;;;;;;4936858;29;20027;-69
2022/02/23 07:55:22;;;;;;;14.00;5.57;;;-10.30;99.90;;;;;;4936450;29;20028;-69
2022/02/23 07:57:48;;;;;;;14.88;5.68;;;-10.20;99.90;;;;;;4936610;29;20028;-69
2022/02/23 08:00:14;;;;;;;10.07;5.22;;;-10.10;99.90;;;;;;4936108;29;20403;-69
2022/02/23 08:02:40;;;;;;;11.40;5.60;;;-10.10;99.90;;;;;;4936339;29;20131;-69
2022/02/23 08:05:07;;;;;;;16.58;5.28;;;-10.20;99.90;;;;;;4936252;29;20562;-69
2022/02/23 08:07:33;;;;;;;9.35;5.07;;;-10.30;99.90;;;;;;4936310;29;20110;-70
2022/02/23 08:09:59;;;;;;;19.88;4.70;;;-10.30;99.90;;;;;;4936304;29;20106;-70
2022/02/23 08:12:26;;;;;;;7.05;4.43;;;-10.20;99.90;;;;;;4936361;29;20567;-69
2022/02/23 08:14:54;;;;;;;19.70;6.18;;;-10.20;99.90;;;;;;4936181;29;20028;-69
2022/02/23 08:20:06;;;;;;;12.77;5.63;;;-10.20;99.90;;;;;;4936161;29;20050;-69
2022/02/23 08:22:32;;;;;;;22.42;5.55;;;-10.10;99.90;;;;;;4936248;29;20027;-72
2022/02/23 08:24:58;;;;;;;10.65;5.15;;;-10.20;99.90;;;;;;4935991;29;20125;-75
2022/02/23 08:27:25;;;;;;;10.05;4.32;;;-9.00;99.90;;;;;;4929823;29;20024;-76
2022/02/23 08:29:55;;;;;;;9.18;3.42;;;-6.80;99.90;;;;;;4925615;29;20574;-76
2022/02/23 08:32:23;;;;;;;7.65;4.07;;;-6.50;99.90;;;;;;4935375;29;20539;-68
2022/02/23 08:34:51;;;;;;;15.07;4.45;;;-6.20;99.90;;;;;;4932580;29;20527;-67
2022/02/23 08:37:18;;;;;;;8.98;5.18;;;-6.00;99.90;;;;;;4919295;29;20076;-69
2022/02/23 08:39:44;;;;;;;10.48;4.90;;;-6.40;99.90;;;;;;4920780;29;20444;-68
2022/02/23 08:42:13;;;;;;;12.30;5.07;;;-7.40;99.90;;;;;;4930650;29;20030;-69
2022/02/23 08:44:39;;;;;;;7.78;4.18;;;-8.20;99.90;;;;;;4935576;29;20558;-68
2022/02/23 08:47:07;;;;;;;6.65;3.95;;;-8.60;99.90;;;;;;4923945;29;20464;-69
2022/02/23 08:49:32;;;;;;;6.57;3.70;;;-8.80;99.90;;;;;;4918258;29;20060;-68
2022/02/23 08:51:59;;;;;;;6.95;3.92;;;-9.00;99.90;;;;;;4934186;29;20058;-69
2022/02/23 08:54:24;;;;;;;7.07;4.15;;;-9.20;99.90;;;;;;4935626;29;20034;-68
2022/02/23 08:56:50;;;;;;;11.85;3.97;;;-9.30;99.90;;;;;;4935450;29;20450;-68
2022/02/23 08:59:16;;;;;;;14.63;4.28;;;-9.40;99.90;;;;;;4934979;29;20106;-68
2022/02/23 09:01:43;;;;;;;9.07;3.88;;;-9.30;99.90;;;;;;4916796;29;20032;-69
2022/02/23 09:04:09;;;;;;;8.30;4.03;;;-9.30;99.90;;;;;;4934629;29;20047;-68
2022/02/23 09:06:37;;;;;;;10.98;4.93;;;-9.20;99.90;;;;;;4930145;29;20019;-68
2022/02/23 09:09:05;;;;;;;6.13;3.95;;;-9.30;99.90;;;;;;4917048;29;20060;-69
2022/02/23 09:11:31;;;;;;;13.02;3.92;;;-9.40;99.90;;;;;;4916395;29;20024;-69
2022/02/23 09:13:57;;;;;;;10.55;3.97;;;-9.40;99.90;;;;;;4920873;29;20079;-68
2022/02/23 09:16:23;;;;;;;7.88;4.28;;;-9.60;99.90;;;;;;4935404;29;20383;-69
2022/02/23 09:18:48;;;;;;;10.75;3.83;;;-9.50;99.90;;;;;;4935050;29;20101;-69
2022/02/23 09:21:15;;;;;;;7.80;3.95;;;-9.50;99.90;;;;;;4935123;29;20032;-69
2022/02/23 09:23:40;;;;;;;5.85;3.78;;;-9.50;99.90;;;;;;4927726;29;20023;-69
2022/02/23 09:26:07;;;;;;;9.90;4.43;;;-9.40;99.90;;;;;;4928317;29;20027;-69
2022/02/23 09:28:34;;;;;;;11.32;4.07;;;-9.00;99.90;;;;;;4932812;29;20040;-69
2022/02/23 09:31:00;;;;;;;14.35;3.83;;;-8.80;99.90;;;;;;4935107;29;20027;-69
2022/02/23 09:33:25;;;;;;;10.52;3.70;;;-9.00;99.90;;;;;;4934933;29;20383;-68
2022/02/23 09:35:51;;;;;;;8.27;3.85;;;-9.10;99.90;;;;;;4935028;29;20035;-68
2022/02/23 09:38:18;;;;;;;13.70;3.97;;;-9.20;99.90;;;;;;4927143;29;20051;-68
2022/02/23 09:40:53;;;;;;;6.80;3.35;;;-9.30;99.90;;;;;;4926865;29;20032;-68
2022/02/23 09:43:19;;;;;;;7.25;3.97;;;-9.40;99.90;;;;;;4927158;29;20111;-68
2022/02/23 09:45:58;;;;;;;9.43;3.58;;;-9.30;99.90;;;;;;4924346;29;20028;-67
2022/02/23 09:48:28;;;;;;;7.57;3.92;;;-9.30;99.90;;;;;;4925098;29;20032;-67
2022/02/23 09:50:55;;;;;;;5.47;3.58;;;-9.20;99.90;;;;;;4915942;29;20428;-67
2022/02/23 09:53:22;;;;;;;7.45;4.15;;;-9.20;99.90;;;;;;4915856;29;20025;-67
2022/02/23 09:55:50;;;;;;;9.82;4.20;;;-9.20;99.90;;;;;;4915937;29;20376;-67
2022/02/23 09:58:16;;;;;;;12.38;4.25;;;-9.10;99.90;;;;;;4915504;29;20028;-67
2022/02/23 10:00:42;;;;;;;7.88;4.20;;;-9.10;99.90;;;;;;4915553;29;20099;-68
2022/02/23 10:03:10;;;;;;;12.90;4.57;;;-9.20;99.90;;;;;;4916325;29;20039;-68
2022/02/23 10:05:38;;;;;;;7.32;3.58;;;-9.10;99.90;;;;;;4915541;29;20032;-70
2022/02/23 10:08:09;;;;;;;6.70;4.20;;;-9.10;99.90;;;;;;4915091;29;20055;-70
2022/02/23 10:10:37;;;;;;;8.73;3.72;;;-9.00;99.90;;;;;;4915584;29;20055;-69
2022/02/23 10:13:03;;;;;;;4.80;3.03;;;-8.90;99.90;;;;;;4915332;29;20483;-69
2022/02/23 10:15:38;;;;;;;8.95;3.67;;;-8.90;99.90;;;;;;4923751;29;20364;-70
2022/02/23 10:18:12;;;;;;;9.80;4.32;;;-8.90;99.90;;;;;;4925220;29;20119;-70
2022/02/23 10:20:39;;;;;;;10.38;3.88;;;-8.80;99.90;;;;;;4927124;29;20039;-70
2022/02/23 10:23:20;;;;;;;10.70;4.63;;;-8.80;99.90;;;;;;4934126;29;20032;-69
2022/02/23 10:25:54;;;;;;;10.35;4.35;;;-7.80;99.90;;;;;;4934096;29;20051;-69
2022/02/23 10:28:24;;;;;;;6.88;4.38;;;-8.00;99.90;;;;;;4934197;29;20091;-69
2022/02/23 10:30:57;;;;;;;3.30;2.70;;;-8.10;99.90;;;;;;4934700;29;20395;-69
2022/02/23 10:33:26;;;;;;;5.70;3.50;;;-8.00;99.90;;;;;;4937389;29;20047;-67
2022/02/23 10:36:04;;;;;;;9.18;3.70;;;-7.00;99.90;;;;;;4949660;29;20486;-67
2022/02/23 10:38:37;;;;;;;9.25;4.28;;;-7.40;99.90;;;;;;4933746;28;20083;-67
2022/02/23 10:41:05;;;;;;;8.18;3.67;;;-7.70;99.90;;;;;;4933886;29;20547;-66
2022/02/23 10:43:45;;;;;;;9.65;3.40;;;-7.90;99.90;;;;;;4933868;29;20111;-68
2022/02/23 10:46:16;;;;;;;7.93;3.65;;;-7.90;99.90;;;;;;4933934;29;20103;-67
2022/02/23 10:48:56;;;;;;;7.70;4.25;;;-7.90;99.90;;;;;;4930786;29;20064;-67
2022/02/23 10:51:36;;;;;;;8.23;3.10;;;-7.90;99.90;;;;;;4931618;29;20028;-68
2022/02/23 10:54:06;;;;;;;6.50;3.58;;;-7.90;99.90;;;;;;4928062;29;20032;-67
2022/02/23 10:56:35;;;;;;;10.37;3.50;;;-8.00;99.90;;;;;;4920353;29;20028;-68
2022/02/23 10:59:19;;;;;;;4.82;2.50;;;-8.00;99.90;;;;;;4936403;29;20046;-68
2022/02/23 11:01:48;;;;;;;8.68;4.32;;;-8.00;99.90;;;;;;4937689;29;20031;-63
2022/02/23 11:04:14;;;;;;;6.13;3.47;;;-8.00;99.90;;;;;;4937568;29;20027;-66
2022/02/23 11:06:41;;;;;;;7.05;3.13;;;-8.00;99.90;;;;;;4936469;29;20020;-66
2022/02/23 11:09:08;;;;;;;6.43;3.53;;;-7.90;99.90;;;;;;4937622;29;20042;-66
2022/02/23 11:11:34;;;;;;;6.70;3.28;;;-7.90;99.90;;;;;;4935038;29;20442;-66
2022/02/23 11:14:00;;;;;;;6.35;3.13;;;-7.90;99.90;;;;;;4927086;29;20392;-66
2022/02/23 11:16:28;;;;;;;7.28;3.22;;;-7.80;99.90;;;;;;4928346;29;20497;-66
2022/02/23 11:18:58;;;;;;;7.22;3.22;;;-7.70;99.90;;;;;;4926810;29;20380;-67
2022/02/23 11:21:29;;;;;;;7.68;3.28;;;-7.70;99.90;;;;;;4920521;29;20482;-67
2022/02/23 11:24:00;;;;;;;10.75;3.70;;;-7.70;99.90;;;;;;4933692;29;20403;-67
2022/02/23 11:26:32;;;;;;;9.93;3.45;;;-7.60;99.90;;;;;;4936849;29;20514;-67
2022/02/23 11:29:21;;;;;;;7.78;3.28;;;-7.60;99.90;;;;;;4928714;29;20108;-67
2022/02/23 11:31:52;;;;;;;5.72;3.13;;;-7.50;99.90;;;;;;4918468;29;20107;-67
2022/02/23 11:34:22;;;;;;;4.25;2.90;;;-7.40;99.90;;;;;;4918994;29;20103;-67
2022/02/23 11:36:52;;;;;;;5.40;3.67;;;-7.40;99.90;;;;;;4926425;29;20121;-66
2022/02/23 11:39:21;;;;;;;11.77;4.30;;;-7.40;99.90;;;;;;4936472;29;20100;-66
2022/02/23 11:41:52;;;;;;;9.52;4.13;;;-7.30;99.90;;;;;;4921155;29;20028;-67
2022/02/23 11:44:21;;;;;;;9.65;3.75;;;-7.30;99.90;;;;;;4921460;29;20083;-67
2022/02/23 11:46:56;;;;;;;9.60;3.60;;;-7.30;99.90;;;;;;4927665;29;20027;-67
2022/02/23 11:49:27;;;;;;;9.23;4.15;;;-7.30;99.90;;;;;;4936891;29;20028;-67
2022/02/23 11:52:10;;;;;;;9.27;4.28;;;-7.30;99.90;;;;;;4936717;29;20031;-67
2022/02/23 11:54:56;;;;;;;11.80;5.63;;;-7.30;99.90;;;;;;4936307;29;20061;-69
2022/02/23 11:57:52;;;;;;;13.82;3.70;;;-7.40;99.90;;;;;;4936429;29;20058;-69
2022/02/23 12:00:25;;;;;;;8.73;4.13;;;-7.40;99.90;;;;;;4924326;29;20553;-70
2022/02/23 12:03:09;;;;;;;9.70;4.10;;;-7.40;99.90;;;;;;4949071;29;20027;-69
2022/02/23 12:05:43;;;;;;;8.48;3.80;;;-7.50;99.90;;;;;;4934354;28;20122;-68
2022/02/23 12:08:34;;;;;;;3.55;2.85;;;-7.40;99.90;;;;;;4927938;29;20062;-71
2022/02/23 12:11:15;;;;;;;11.50;4.20;;;-5.20;99.90;;;;;;4917636;29;20067;-70
2022/02/23 12:13:55;;;;;;;4.47;2.45;;;-4.50;99.90;;;;;;4934504;29;20028;-71
2022/02/23 12:16:30;;;;;;;7.15;3.92;;;-5.30;99.90;;;;;;4929659;29;20345;-71
2022/02/23 12:19:01;;;;;;;5.75;3.47;;;-5.00;99.90;;;;;;4935129;29;20039;-71
2022/02/23 12:21:40;;;;;;;7.78;3.53;;;-5.50;99.90;;;;;;4935514;29;20055;-69
2022/02/23 12:24:07;;;;;;;6.30;3.50;;;-5.90;99.90;;;;;;4935656;29;20031;-69
2022/02/23 12:26:37;;;;;;;6.68;4.15;;;-6.10;99.90;;;;;;4936487;29;20078;-67
2022/02/23 12:29:05;;;;;;;12.87;3.83;;;-6.20;99.90;;;;;;4936163;29;20109;-69
2022/02/23 12:31:32;;;;;;;4.20;2.97;;;-6.30;99.90;;;;;;4936047;29;20472;-71
2022/02/23 12:34:00;;;;;;;9.23;4.97;;;-6.40;99.90;;;;;;4936034;29;20028;-71
2022/02/23 12:36:36;;;;;;;9.00;4.60;;;-6.30;99.90;;;;;;4928316;29;20024;-68
2022/02/23 12:39:05;;;;;;;9.65;4.10;;;-6.40;99.90;;;;;;4926556;29;20411;-69
2022/02/23 12:41:33;;;;;;;9.68;4.10;;;-6.10;99.90;;;;;;4933542;29;20102;-69
2022/02/23 12:44:08;;;;;;;8.50;4.10;;;-6.20;99.90;;;;;;4935674;29;20048;-69
2022/02/23 12:46:36;;;;;;;12.68;4.57;;;-6.50;99.90;;;;;;4936042;29;20054;-69
2022/02/23 12:49:04;;;;;;;10.85;4.20;;;-6.70;99.90;;;;;;4935851;29;20027;-69
2022/02/23 12:51:31;;;;;;;7.93;3.80;;;-6.70;99.90;;;;;;4935825;29;20031;-69
2022/02/23 12:54:01;;;;;;;7.90;4.15;;;-6.70;99.90;;;;;;4935516;29;20024;-69
2022/02/23 12:56:41;;;;;;;14.20;5.60;;;-6.70;99.90;;;;;;4935718;29;20043;-69
2022/02/23 12:59:15;;;;;;;5.63;3.90;;;-6.80;99.90;;;;;;4935752;29;20094;-69
2022/02/23 13:01:46;;;;;;;9.93;3.88;;;-6.80;99.90;;;;;;4935201;29;20024;-69
2022/02/23 13:04:22;;;;;;;6.70;4.38;;;-6.80;99.90;;;;;;4935135;29;20024;-68
2022/02/23 13:06:50;;;;;;;10.10;4.78;;;-6.80;99.90;;;;;;4935330;29;20144;-70
2022/02/23 13:09:25;;;;;;;7.88;4.10;;;-6.70;99.90;;;;;;4935090;29;20383;-66
2022/02/23 13:11:58;;;;;;;10.60;4.30;;;-6.50;99.90;;;;;;4935289;29;20379;-70
2022/02/23 13:14:32;;;;;;;7.15;4.22;;;-6.40;99.90;;;;;;4935362;29;20058;-70
2022/02/23 13:16:59;;;;;;;10.75;5.40;;;-6.40;99.90;;;;;;4934737;29;20109;-71
2022/02/23 13:19:31;;;;;;;8.85;4.78;;;-6.10;99.90;;;;;;4936486;29;20035;-70
2022/02/23 13:22:06;;;;;;;17.30;9.68;;;-6.10;99.90;;;;;;4935057;29;20103;-70
2022/02/23 13:24:35;;;;;;;9.57;5.18;;;-6.10;99.90;;;;;;4935102;29;20027;-69
2022/02/23 13:27:13;;;;;;;10.98;5.13;;;-5.90;99.90;;;;;;4933996;29;20035;-70
2022/02/23 13:29:41;;;;;;;8.02;4.22;;;-5.50;99.90;;;;;;4929278;29;20559;-70
2022/02/23 13:32:12;;;;;;;7.63;4.88;;;-5.80;99.90;;;;;;4929777;29;20024;-69
2022/02/23 13:34:41;;;;;;;9.45;4.97;;;-6.00;99.90;;;;;;4934333;29;20035;-69
2022/02/23 13:37:12;;;;;;;9.93;4.78;;;-6.10;99.90;;;;;;4934383;29;20437;-69
2022/02/23 13:39:45;;;;;;;12.65;4.95;;;-6.20;99.90;;;;;;4934222;29;20519;-69
2022/02/23 13:42:17;;;;;;;13.48;5.15;;;-6.20;99.90;;;;;;4934190;29;20063;-70
2022/02/23 13:44:47;;;;;;;11.70;5.53;;;-6.30;99.90;;;;;;4934306;29;20035;-69
2022/02/23 13:47:23;;;;;;;8.35;4.63;;;-6.30;99.90;;;;;;4934004;29;20034;-69
2022/02/23 13:50:15;;;;;;;13.15;5.70;;;-6.30;99.90;;;;;;4931653;29;20365;-70